Time;durP1;ratioP1;P1;durP2;ratioP2;P2;SDS_P1;SDS_P2;PMS_P1;PMS_P2;Temp;Humidity;BMP_temperature;BMP_pressure;BME280_temperature;BME280_humidity;BME280_pressure;Samples;Min_cycle;Max_cycle;Signal;HPM_P1;HPM_P2
2024/01/18 00:01:09;;;;;;;7.40;6.30;;;3.10;80.90;;;;;;4731392;30;20036;-89
2024/01/18 00:03:39;;;;;;;7.97;6.45;;;3.10;80.90;;;;;;4747811;30;20559;-88
2024/01/18 00:06:06;;;;;;;7.18;6.13;;;3.00;80.80;;;;;;4730265;30;20040;-89
2024/01/18 00:08:31;;;;;;;7.55;6.10;;;3.10;80.90;;;;;;4746554;30;20489;-89
2024/01/18 00:10:58;;;;;;;7.15;5.68;;;3.00;80.80;;;;;;4727199;30;20044;-89
2024/01/18 00:13:24;;;;;;;8.40;6.47;;;3.10;80.90;;;;;;4732024;30;20028;-89
2024/01/18 00:15:50;;;;;;;8.15;5.93;;;3.10;80.90;;;;;;4753520;30;20032;-90
2024/01/18 00:18:15;;;;;;;8.10;6.60;;;3.00;80.80;;;;;;4735605;30;20069;-88
2024/01/18 00:20:41;;;;;;;6.85;5.95;;;3.10;80.80;;;;;;4716491;30;20032;-88
2024/01/18 00:23:07;;;;;;;7.70;5.97;;;3.10;80.80;;;;;;4733172;30;20040;-88
2024/01/18 00:25:33;;;;;;;7.65;6.25;;;3.00;80.80;;;;;;4710756;30;20041;-88
2024/01/18 00:27:58;;;;;;;7.78;6.57;;;3.00;80.80;;;;;;4717041;30;20113;-88
2024/01/18 00:30:24;;;;;;;8.20;6.60;;;3.00;80.80;;;;;;4746767;30;20028;-88
2024/01/18 00:32:50;;;;;;;7.97;6.35;;;3.00;80.80;;;;;;4715217;30;20489;-88
2024/01/18 00:35:15;;;;;;;8.80;7.03;;;3.00;80.80;;;;;;4732035;30;20032;-90
2024/01/18 00:37:41;;;;;;;8.07;6.63;;;3.00;80.80;;;;;;4746297;30;20063;-90
2024/01/18 00:40:07;;;;;;;7.95;6.22;;;3.00;80.90;;;;;;4717741;30;20036;-91
2024/01/18 00:42:33;;;;;;;7.40;6.32;;;3.00;80.90;;;;;;4748174;30;20039;-90
2024/01/18 00:44:59;;;;;;;8.50;6.97;;;3.00;80.80;;;;;;4735130;30;20626;-91
2024/01/18 00:47:25;;;;;;;8.32;6.88;;;3.00;80.80;;;;;;4735850;30;20036;-91
2024/01/18 00:49:51;;;;;;;7.43;6.30;;;3.00;80.80;;;;;;4750044;30;20032;-91
2024/01/18 00:52:16;;;;;;;7.97;6.53;;;3.00;80.80;;;;;;4732278;30;20036;-91
2024/01/18 00:54:42;;;;;;;7.72;6.47;;;3.00;80.80;;;;;;4752605;30;20028;-91
2024/01/18 00:57:08;;;;;;;8.23;6.57;;;3.00;80.90;;;;;;4730086;30;20591;-91
2024/01/18 00:59:33;;;;;;;9.00;6.97;;;3.00;80.90;;;;;;4735850;30;20033;-90
2024/01/18 01:01:59;;;;;;;8.07;6.88;;;3.00;80.90;;;;;;4719767;30;20030;-91
2024/01/18 01:04:25;;;;;;;9.20;7.43;;;3.00;80.90;;;;;;4721365;30;20067;-90
2024/01/18 01:06:51;;;;;;;8.35;6.82;;;2.90;80.80;;;;;;4734655;30;20075;-91
2024/01/18 01:09:16;;;;;;;9.07;7.32;;;3.00;80.90;;;;;;4735876;30;20043;-90
2024/01/18 01:11:42;;;;;;;8.30;6.82;;;3.00;80.90;;;;;;4718246;30;20565;-91
2024/01/18 01:14:08;;;;;;;8.15;6.70;;;2.90;80.80;;;;;;4734058;30;20050;-90
2024/01/18 01:16:33;;;;;;;8.82;7.10;;;2.90;80.80;;;;;;4747748;30;20060;-90
2024/01/18 01:18:59;;;;;;;8.48;7.05;;;2.90;80.80;;;;;;4732901;30;20036;-90
2024/01/18 01:21:25;;;;;;;8.48;7.25;;;2.90;80.90;;;;;;4737157;30;20025;-91
2024/01/18 01:23:51;;;;;;;8.45;7.15;;;2.90;80.80;;;;;;4751540;30;20042;-90
2024/01/18 01:26:18;;;;;;;8.55;7.60;;;2.90;80.80;;;;;;4723492;30;20094;-90
2024/01/18 01:28:44;;;;;;;8.88;6.95;;;2.90;80.80;;;;;;4717769;30;20402;-90
2024/01/18 01:31:10;;;;;;;8.43;7.43;;;2.90;80.80;;;;;;4715689;30;20033;-91
2024/01/18 01:33:36;;;;;;;7.82;6.45;;;2.90;80.90;;;;;;4737062;30;20039;-89
2024/01/18 01:36:02;;;;;;;9.25;7.30;;;2.90;80.90;;;;;;4734802;30;20043;-91
2024/01/18 01:38:28;;;;;;;8.20;6.75;;;2.90;80.90;;;;;;4731912;30;20060;-90
2024/01/18 01:40:54;;;;;;;8.25;7.35;;;2.90;80.90;;;;;;4732670;30;20033;-91
2024/01/18 01:43:20;;;;;;;8.65;6.97;;;2.90;80.90;;;;;;4732702;30;20023;-91
2024/01/18 01:45:46;;;;;;;9.13;7.90;;;2.90;80.90;;;;;;4729386;30;20032;-90
2024/01/18 01:48:12;;;;;;;9.27;7.03;;;2.90;80.90;;;;;;4734671;30;20112;-91
2024/01/18 01:50:38;;;;;;;9.57;7.40;;;2.90;80.90;;;;;;4720677;30;20067;-90
2024/01/18 01:53:06;;;;;;;9.23;7.53;;;2.90;80.80;;;;;;4720803;30;20057;-90
2024/01/18 01:55:32;;;;;;;9.63;7.50;;;2.90;80.90;;;;;;4745463;30;20036;-90
2024/01/18 01:57:59;;;;;;;9.52;7.95;;;2.80;80.80;;;;;;4734747;30;20044;-89
2024/01/18 02:00:25;;;;;;;8.60;7.30;;;2.80;80.80;;;;;;4719417;30;20043;-89
2024/01/18 02:02:52;;;;;;;8.57;7.22;;;2.80;80.80;;;;;;4734318;30;20047;-90
2024/01/18 02:05:18;;;;;;;8.90;7.43;;;2.80;80.90;;;;;;4720531;30;20047;-90
2024/01/18 02:07:45;;;;;;;9.68;7.50;;;2.80;80.80;;;;;;4729947;30;20033;-90
2024/01/18 02:10:12;;;;;;;9.55;7.65;;;2.80;80.80;;;;;;4735571;30;20032;-90
2024/01/18 02:12:38;;;;;;;8.65;7.25;;;2.80;80.80;;;;;;4717412;30;20044;-90
2024/01/18 02:15:05;;;;;;;9.20;7.95;;;2.80;80.80;;;;;;4742884;30;20123;-90
2024/01/18 02:17:31;;;;;;;10.45;7.90;;;2.80;80.80;;;;;;4733356;30;20499;-89
2024/01/18 02:19:57;;;;;;;9.80;8.45;;;2.80;80.80;;;;;;4726113;30;20120;-90
2024/01/18 02:22:27;;;;;;;8.95;7.75;;;2.80;80.70;;;;;;4717002;30;20036;-89
2024/01/18 02:25:12;;;;;;;9.65;7.95;;;2.80;80.70;;;;;;4721750;30;20639;-89
2024/01/18 02:27:38;;;;;;;9.05;7.18;;;2.80;80.70;;;;;;4710436;30;20083;-89
2024/01/18 02:30:04;;;;;;;9.43;7.50;;;2.70;80.60;;;;;;4724301;30;20568;-89
2024/01/18 02:32:30;;;;;;;10.55;8.00;;;2.70;80.60;;;;;;4718340;30;20056;-89
2024/01/18 02:34:56;;;;;;;9.02;7.85;;;2.70;80.70;;;;;;4732717;30;20409;-89
2024/01/18 02:37:22;;;;;;;8.85;7.45;;;2.70;80.60;;;;;;4718746;30;20049;-88
2024/01/18 02:39:48;;;;;;;9.80;7.85;;;2.70;80.60;;;;;;4737166;30;20035;-89
2024/01/18 02:42:14;;;;;;;9.82;7.60;;;2.70;80.70;;;;;;4725291;30;20036;-90
2024/01/18 02:44:42;;;;;;;9.48;7.97;;;2.60;80.60;;;;;;4729394;30;20410;-89
2024/01/18 02:47:07;;;;;;;9.65;7.88;;;2.70;80.70;;;;;;4733671;30;20040;-89
2024/01/18 02:49:37;;;;;;;9.13;7.55;;;2.60;80.60;;;;;;4746446;30;20112;-90
2024/01/18 02:52:03;;;;;;;10.07;7.93;;;2.60;80.70;;;;;;4732339;30;20025;-89
2024/01/18 02:54:28;;;;;;;9.40;7.78;;;2.60;80.60;;;;;;4740393;30;20044;-89
2024/01/18 02:56:54;;;;;;;9.18;7.25;;;2.60;80.60;;;;;;4719908;30;20035;-89
2024/01/18 02:59:20;;;;;;;9.05;7.50;;;2.60;80.50;;;;;;4718483;30;20031;-90
2024/01/18 03:01:46;;;;;;;9.55;8.20;;;2.60;80.60;;;;;;4749805;30;20567;-89
2024/01/18 03:04:11;;;;;;;9.38;7.68;;;2.60;81.30;;;;;;4725550;30;20021;-89
2024/01/18 03:06:37;;;;;;;8.70;7.75;;;2.60;80.60;;;;;;4718319;30;20094;-89
2024/01/18 03:09:03;;;;;;;10.27;7.75;;;2.60;80.60;;;;;;4739632;30;20032;-89
2024/01/18 03:11:29;;;;;;;10.25;8.20;;;2.50;80.50;;;;;;4737714;30;20040;-88
2024/01/18 03:13:55;;;;;;;9.50;8.02;;;2.50;80.50;;;;;;4737519;30;20040;-89
2024/01/18 03:16:20;;;;;;;9.52;8.02;;;2.50;80.50;;;;;;4752757;30;20025;-89
2024/01/18 03:18:47;;;;;;;10.30;8.32;;;2.50;80.50;;;;;;4736217;30;20521;-89
2024/01/18 03:21:13;;;;;;;10.07;8.18;;;2.50;80.60;;;;;;4719189;30;20095;-89
2024/01/18 03:23:40;;;;;;;10.75;8.02;;;2.50;80.60;;;;;;4735664;30;20032;-89
2024/01/18 03:26:06;;;;;;;10.95;8.25;;;2.50;80.50;;;;;;4735820;30;20051;-89
2024/01/18 03:28:31;;;;;;;8.98;7.57;;;2.50;80.50;;;;;;4736400;30;20025;-89
2024/01/18 03:30:57;;;;;;;9.00;7.90;;;2.40;80.50;;;;;;4734864;30;20393;-89
2024/01/18 03:33:23;;;;;;;10.50;8.45;;;2.40;80.50;;;;;;4738440;30;20048;-89
2024/01/18 03:35:49;;;;;;;9.40;7.75;;;2.40;80.50;;;;;;4732195;30;20508;-89
2024/01/18 03:38:14;;;;;;;8.95;7.43;;;2.40;80.40;;;;;;4718699;30;20147;-89
2024/01/18 03:40:40;;;;;;;10.45;7.78;;;2.40;80.40;;;;;;4729704;30;20043;-89
2024/01/18 03:43:06;;;;;;;9.35;7.72;;;2.40;80.40;;;;;;4754450;30;20117;-89
2024/01/18 03:45:32;;;;;;;8.43;7.45;;;2.40;80.40;;;;;;4750833;30;20094;-89
2024/01/18 03:47:57;;;;;;;9.90;8.30;;;2.40;80.40;;;;;;4721377;30;20048;-89
2024/01/18 03:50:23;;;;;;;8.98;7.65;;;2.40;80.40;;;;;;4719352;30;20035;-90
2024/01/18 03:52:49;;;;;;;9.90;7.75;;;2.30;80.40;;;;;;4736329;30;20055;-90
2024/01/18 03:55:15;;;;;;;10.07;8.23;;;2.30;80.40;;;;;;4736810;30;20028;-89
2024/01/18 03:57:40;;;;;;;10.55;8.52;;;2.30;80.40;;;;;;4734611;30;20028;-88
2024/01/18 04:00:09;;;;;;;10.73;8.05;;;2.30;80.50;;;;;;4735341;30;20036;-88
2024/01/18 04:02:35;;;;;;;8.95;7.78;;;2.30;80.50;;;;;;4728111;30;20059;-88
2024/01/18 04:05:01;;;;;;;9.95;7.95;;;2.30;80.40;;;;;;4750145;30;20136;-89
2024/01/18 04:07:27;;;;;;;9.23;7.35;;;2.30;80.50;;;;;;4733664;30;20025;-89
2024/01/18 04:09:53;;;;;;;10.20;8.07;;;2.20;80.40;;;;;;4743986;30;20098;-89
2024/01/18 04:12:18;;;;;;;8.88;7.53;;;2.20;80.50;;;;;;4717762;30;20119;-89
2024/01/18 04:14:44;;;;;;;10.82;8.25;;;2.20;80.40;;;;;;4734470;30;20490;-88
2024/01/18 04:17:13;;;;;;;9.57;8.45;;;2.20;80.40;;;;;;4736399;30;20551;-88
2024/01/18 04:19:39;;;;;;;11.07;8.18;;;2.20;80.40;;;;;;4733823;30;20033;-87
2024/01/18 04:22:06;;;;;;;10.05;8.30;;;2.20;80.40;;;;;;4749664;30;20032;-88
2024/01/18 04:24:32;;;;;;;9.10;7.68;;;2.20;80.40;;;;;;4733655;30;20032;-88
2024/01/18 04:26:57;;;;;;;9.68;7.88;;;2.10;80.50;;;;;;4717244;30;20063;-89
2024/01/18 04:29:23;;;;;;;9.20;7.95;;;2.10;80.50;;;;;;4733783;30;20390;-89
2024/01/18 04:31:49;;;;;;;9.20;7.93;;;2.10;80.50;;;;;;4722196;30;20028;-89
2024/01/18 04:34:15;;;;;;;10.30;8.60;;;2.10;80.50;;;;;;4719128;30;20040;-89
2024/01/18 04:36:41;;;;;;;10.43;8.23;;;2.10;80.60;;;;;;4734018;30;20128;-88
2024/01/18 04:39:06;;;;;;;9.27;7.43;;;2.10;80.50;;;;;;4721007;30;20059;-89
2024/01/18 04:41:32;;;;;;;10.07;7.97;;;2.10;80.50;;;;;;4739692;30;20169;-88
2024/01/18 04:43:58;;;;;;;9.90;7.88;;;2.10;80.50;;;;;;4730694;30;20502;-89
2024/01/18 04:46:25;;;;;;;9.45;7.80;;;2.00;80.40;;;;;;4734065;30;20647;-88
2024/01/18 04:48:51;;;;;;;9.98;8.40;;;2.10;80.50;;;;;;4744845;30;20506;-89
2024/01/18 04:51:19;;;;;;;8.68;7.55;;;2.00;80.50;;;;;;4717864;30;20076;-88
2024/01/18 04:53:45;;;;;;;9.50;7.50;;;2.00;80.50;;;;;;4729584;30;20114;-88
2024/01/18 04:56:10;;;;;;;10.38;7.85;;;2.00;80.50;;;;;;4734208;30;20051;-88
2024/01/18 04:58:36;;;;;;;9.20;7.63;;;2.00;80.50;;;;;;4741008;30;20044;-89
2024/01/18 05:01:02;;;;;;;8.70;7.53;;;2.00;80.50;;;;;;4733251;30;20617;-89
2024/01/18 05:03:28;;;;;;;9.02;7.90;;;2.00;80.50;;;;;;4735793;30;20204;-89
2024/01/18 05:05:56;;;;;;;9.07;7.50;;;1.90;80.40;;;;;;4736482;30;20539;-87
2024/01/18 05:08:22;;;;;;;9.68;7.97;;;1.90;80.50;;;;;;4732055;30;20040;-88
2024/01/18 05:10:48;;;;;;;10.18;8.23;;;1.90;80.50;;;;;;4729420;30;20035;-88
2024/01/18 05:13:14;;;;;;;8.73;7.10;;;1.90;80.60;;;;;;4730548;30;20091;-88
2024/01/18 05:15:40;;;;;;;9.82;7.70;;;1.90;80.60;;;;;;4735923;30;20036;-88
2024/01/18 05:18:08;;;;;;;9.73;8.10;;;1.90;80.60;;;;;;4721227;30;20071;-88
2024/01/18 05:20:34;;;;;;;8.88;7.47;;;1.90;80.60;;;;;;4736073;30;20102;-89
2024/01/18 05:23:00;;;;;;;9.35;7.00;;;1.90;80.60;;;;;;4737926;30;20024;-88
2024/01/18 05:25:26;;;;;;;9.02;7.68;;;1.80;80.50;;;;;;4735993;30;20059;-89
2024/01/18 05:27:52;;;;;;;8.55;7.53;;;1.80;80.50;;;;;;4745843;30;20036;-88
2024/01/18 05:30:20;;;;;;;9.35;7.80;;;1.80;80.50;;;;;;4738810;30;20086;-88
2024/01/18 05:32:46;;;;;;;9.23;6.88;;;1.80;80.60;;;;;;4722187;30;20052;-87
2024/01/18 05:35:12;;;;;;;9.23;7.70;;;1.80;80.60;;;;;;4734234;30;20305;-88
2024/01/18 05:37:38;;;;;;;9.77;7.55;;;1.80;80.60;;;;;;4730900;30;20043;-88
2024/01/18 05:40:04;;;;;;;9.30;6.65;;;1.80;80.50;;;;;;4720910;30;20086;-89
2024/01/18 05:42:38;;;;;;;8.25;7.05;;;1.80;80.60;;;;;;5089344;27;20728;-90
2024/01/18 05:45:05;;;;;;;8.52;6.90;;;1.80;80.60;;;;;;5064411;28;20523;-93
2024/01/18 05:47:30;;;;;;;8.75;6.63;;;1.70;80.50;;;;;;5101833;28;20036;-90
2024/01/18 05:49:56;;;;;;;7.97;6.65;;;1.70;80.60;;;;;;5051928;28;20024;-92
2024/01/18 05:52:22;;;;;;;8.65;7.15;;;1.70;80.60;;;;;;5049018;28;20089;-89
2024/01/18 05:54:48;;;;;;;8.55;6.53;;;1.70;80.50;;;;;;5062241;28;20037;-90
2024/01/18 05:57:13;;;;;;;9.20;7.13;;;1.70;80.60;;;;;;5048401;28;20048;-90
2024/01/18 05:59:39;;;;;;;8.02;6.60;;;1.70;80.60;;;;;;5069706;28;20048;-90
2024/01/18 06:02:05;;;;;;;9.48;6.65;;;1.60;80.50;;;;;;5084233;28;20113;-93
2024/01/18 06:04:31;;;;;;;8.85;7.38;;;1.70;80.60;;;;;;5052056;28;20025;-92
2024/01/18 06:06:57;;;;;;;9.32;7.05;;;1.60;80.50;;;;;;5068677;28;20544;-92
2024/01/18 06:09:23;;;;;;;8.68;6.80;;;1.60;80.60;;;;;;5101486;28;20044;-90
2024/01/18 06:11:49;;;;;;;8.93;6.60;;;1.60;80.60;;;;;;5078144;28;20032;-90
2024/01/18 06:14:15;;;;;;;9.45;7.32;;;1.60;80.60;;;;;;5052631;28;20032;-91
2024/01/18 06:16:41;;;;;;;8.93;7.38;;;1.60;80.60;;;;;;5050691;28;20092;-92
2024/01/18 06:19:08;;;;;;;9.32;7.75;;;1.60;80.60;;;;;;5082029;28;20017;-89
2024/01/18 06:21:33;;;;;;;9.02;7.45;;;1.60;80.60;;;;;;5081566;28;20024;-89
2024/01/18 06:23:59;;;;;;;8.55;6.80;;;1.60;80.60;;;;;;5048085;28;20032;-89
2024/01/18 06:26:25;;;;;;;8.95;7.07;;;1.60;80.60;;;;;;5051237;28;20035;-89
2024/01/18 06:28:50;;;;;;;7.88;6.35;;;1.50;80.50;;;;;;5050986;28;20128;-90
2024/01/18 06:31:19;;;;;;;8.88;6.95;;;1.60;80.60;;;;;;5053078;28;20081;-93
2024/01/18 06:33:45;;;;;;;8.77;6.72;;;1.50;80.60;;;;;;5065652;28;20060;-88
2024/01/18 06:36:14;;;;;;;8.32;6.65;;;1.50;80.60;;;;;;5065506;28;20035;-90
2024/01/18 06:38:40;;;;;;;8.27;6.60;;;1.50;80.60;;;;;;5089672;28;20032;-93
2024/01/18 06:41:06;;;;;;;7.95;6.35;;;1.50;80.60;;;;;;5053149;28;20043;-91
2024/01/18 06:43:32;;;;;;;8.02;6.47;;;1.50;80.60;;;;;;5070133;28;20039;-92
2024/01/18 06:45:57;;;;;;;9.38;6.38;;;1.50;80.60;;;;;;5069623;28;20030;-92
2024/01/18 06:48:24;;;;;;;7.68;5.80;;;1.50;81.20;;;;;;5077285;28;20388;-91
2024/01/18 06:50:51;;;;;;;9.02;6.72;;;1.50;80.60;;;;;;5090319;28;20021;-92
2024/01/18 06:53:17;;;;;;;8.20;6.50;;;1.50;80.60;;;;;;5043255;28;20547;-92
2024/01/18 06:55:43;;;;;;;7.78;5.88;;;1.40;80.60;;;;;;5059591;28;20045;-92
2024/01/18 06:58:09;;;;;;;7.63;5.95;;;1.50;80.70;;;;;;5037842;28;20020;-92
2024/01/18 07:00:35;;;;;;;7.55;6.22;;;1.50;80.70;;;;;;5064346;28;20044;-91
2024/01/18 07:03:01;;;;;;;8.13;6.28;;;1.50;80.70;;;;;;5075167;28;20028;-92
2024/01/18 07:05:27;;;;;;;7.72;6.15;;;1.40;80.60;;;;;;5085829;28;20029;-92
2024/01/18 07:07:52;;;;;;;7.68;5.72;;;1.40;80.60;;;;;;5090200;28;20024;-93
2024/01/18 07:10:18;;;;;;;7.40;5.45;;;1.40;80.60;;;;;;5057269;28;20078;-93
2024/01/18 07:12:44;;;;;;;7.75;6.68;;;1.40;80.60;;;;;;5040162;28;20056;-93
2024/01/18 07:15:10;;;;;;;8.15;5.82;;;1.40;80.60;;;;;;5084144;28;20046;-95
2024/01/18 07:17:36;;;;;;;8.75;6.47;;;1.40;80.70;;;;;;5056906;28;20024;-94
2024/01/18 07:20:03;;;;;;;8.23;6.90;;;1.40;80.70;;;;;;5040905;28;20021;-96
2024/01/18 07:22:29;;;;;;;8.25;5.82;;;1.40;80.70;;;;;;5044801;28;20087;-95
2024/01/18 07:24:55;;;;;;;9.65;7.03;;;1.30;80.60;;;;;;5081998;28;20028;-94
2024/01/18 07:27:20;;;;;;;8.80;6.03;;;1.30;80.60;;;;;;5054825;28;20020;-95
2024/01/18 07:29:49;;;;;;;7.97;5.78;;;1.30;80.60;;;;;;5077699;28;20081;-94
2024/01/18 07:32:18;;;;;;;9.15;6.25;;;1.30;80.70;;;;;;5033983;28;20021;-94
2024/01/18 07:34:44;;;;;;;9.70;6.50;;;1.30;80.70;;;;;;5064234;28;20034;-94
2024/01/18 07:37:13;;;;;;;8.90;5.90;;;1.30;80.60;;;;;;5056807;28;20028;-93
2024/01/18 07:39:42;;;;;;;7.95;5.57;;;1.30;80.60;;;;;;5036904;28;20089;-93
2024/01/18 07:42:08;;;;;;;8.02;6.15;;;1.30;80.70;;;;;;5070700;28;20547;-94
2024/01/18 07:44:34;;;;;;;8.65;6.20;;;1.30;80.70;;;;;;5058134;28;20046;-95
2024/01/18 07:47:00;;;;;;;7.18;6.05;;;1.30;80.60;;;;;;5056713;28;20480;-93
2024/01/18 07:49:26;;;;;;;7.13;6.13;;;1.20;80.70;;;;;;5055815;28;20143;-93
2024/01/18 07:51:52;;;;;;;7.78;6.22;;;1.20;80.60;;;;;;5058539;28;20110;-94
2024/01/18 07:54:18;;;;;;;7.47;6.03;;;1.30;80.70;;;;;;5039372;28;20063;-94
2024/01/18 07:56:43;;;;;;;7.75;5.85;;;1.20;80.70;;;;;;5068082;28;20032;-93
2024/01/18 07:59:09;;;;;;;7.53;6.00;;;1.20;80.60;;;;;;5060961;28;20027;-93
2024/01/18 08:01:35;;;;;;;8.00;5.95;;;1.20;80.60;;;;;;5058456;28;20036;-94
2024/01/18 08:04:01;;;;;;;8.32;6.10;;;1.20;80.70;;;;;;5050837;28;20021;-96
2024/01/18 08:06:27;;;;;;;7.82;6.30;;;1.20;80.60;;;;;;5032098;28;20155;-95
2024/01/18 08:08:54;;;;;;;9.50;6.57;;;1.20;80.70;;;;;;5083085;28;20050;-95
2024/01/18 08:11:19;;;;;;;9.35;6.38;;;1.20;80.70;;;;;;5039417;28;20434;-93
2024/01/18 08:13:46;;;;;;;7.45;5.80;;;1.20;80.70;;;;;;5043853;28;20074;-95
2024/01/18 08:16:11;;;;;;;7.55;6.10;;;1.20;81.30;;;;;;5032002;28;20051;-95
2024/01/18 08:18:37;;;;;;;8.18;6.85;;;1.20;80.70;;;;;;5054715;28;20116;-95
2024/01/18 08:21:03;;;;;;;8.15;6.45;;;1.20;80.70;;;;;;5055952;28;20116;-95
2024/01/18 08:23:29;;;;;;;7.50;6.10;;;1.20;80.70;;;;;;5045260;28;20072;-94
2024/01/18 08:25:55;;;;;;;7.40;6.13;;;1.20;80.60;;;;;;5051784;28;20384;-94
2024/01/18 08:28:21;;;;;;;7.22;5.88;;;1.10;80.60;;;;;;5046539;28;20016;-95
2024/01/18 08:30:47;;;;;;;7.05;5.50;;;1.10;80.60;;;;;;5036664;28;20101;-92
2024/01/18 08:33:14;;;;;;;7.65;5.88;;;1.20;80.60;;;;;;5053437;28;20036;-91
2024/01/18 08:35:40;;;;;;;7.43;6.00;;;1.10;80.60;;;;;;5037681;28;20476;-92
2024/01/18 08:38:05;;;;;;;8.82;5.68;;;1.10;80.60;;;;;;5038153;28;20029;-89
2024/01/18 08:40:32;;;;;;;8.02;5.95;;;1.20;80.60;;;;;;5036955;28;20090;-89
2024/01/18 08:42:59;;;;;;;7.88;6.03;;;1.10;80.60;;;;;;5031587;28;20574;-88
2024/01/18 08:45:24;;;;;;;9.07;7.13;;;1.10;80.60;;;;;;5037423;28;20024;-92
2024/01/18 08:47:50;;;;;;;7.75;6.05;;;1.10;80.60;;;;;;5051906;28;20028;-91
2024/01/18 08:50:16;;;;;;;6.70;5.43;;;1.10;80.60;;;;;;5050291;28;20028;-88
2024/01/18 08:52:42;;;;;;;7.15;5.75;;;1.10;80.60;;;;;;5054257;28;20032;-84
2024/01/18 08:55:08;;;;;;;8.48;5.90;;;1.10;80.60;;;;;;5038163;28;20020;-85
2024/01/18 08:57:34;;;;;;;7.70;5.90;;;1.10;80.50;;;;;;5037275;28;20020;-85
2024/01/18 09:00:00;;;;;;;8.73;6.30;;;1.10;80.60;;;;;;5037297;28;20059;-87
2024/01/18 09:02:26;;;;;;;7.50;5.60;;;1.10;80.60;;;;;;5037600;28;20086;-85
2024/01/18 09:04:53;;;;;;;8.52;6.32;;;1.10;80.60;;;;;;5052261;28;20032;-85
2024/01/18 09:07:19;;;;;;;8.15;5.72;;;1.10;80.60;;;;;;5087972;28;20020;-86
2024/01/18 09:09:45;;;;;;;7.72;6.03;;;1.20;80.60;;;;;;5071895;28;20019;-84
2024/01/18 09:12:13;;;;;;;7.28;5.97;;;1.20;80.60;;;;;;5070882;28;20056;-85
2024/01/18 09:14:39;;;;;;;7.72;6.15;;;1.20;80.60;;;;;;5044434;28;20429;-87
2024/01/18 09:17:05;;;;;;;8.40;6.60;;;1.10;80.50;;;;;;5050759;28;20027;-85
2024/01/18 09:19:30;;;;;;;7.47;5.93;;;1.20;80.60;;;;;;5055512;28;20666;-86
2024/01/18 09:21:57;;;;;;;7.80;6.30;;;1.20;80.50;;;;;;5054186;28;20532;-89
2024/01/18 09:24:23;;;;;;;6.82;5.95;;;1.20;80.50;;;;;;5074852;28;20108;-93
2024/01/18 09:26:49;;;;;;;8.80;6.40;;;1.20;80.50;;;;;;5052247;28;20201;-90
2024/01/18 09:29:15;;;;;;;7.32;6.18;;;1.20;80.50;;;;;;5090262;28;20032;-89
2024/01/18 09:31:41;;;;;;;7.50;5.60;;;1.20;80.50;;;;;;5071656;28;20185;-88
2024/01/18 09:34:07;;;;;;;6.57;5.32;;;1.20;80.40;;;;;;5048577;28;20042;-90
2024/01/18 09:36:32;;;;;;;9.10;5.78;;;1.30;80.50;;;;;;5057467;28;20456;-92
2024/01/18 09:38:58;;;;;;;8.07;5.95;;;1.30;80.50;;;;;;5053211;28;20035;-91
2024/01/18 09:41:29;;;;;;;7.68;5.88;;;1.30;80.40;;;;;;5053463;28;20079;-90
2024/01/18 09:44:03;;;;;;;7.05;5.35;;;1.30;80.40;;;;;;5087534;28;20023;-91
2024/01/18 09:46:29;;;;;;;7.35;5.50;;;1.40;80.40;;;;;;5071201;28;20036;-91
2024/01/18 09:48:57;;;;;;;7.00;5.30;;;1.40;80.30;;;;;;5044950;28;20135;-90
2024/01/18 09:51:23;;;;;;;8.02;6.15;;;1.40;80.30;;;;;;5054865;28;20103;-90
2024/01/18 09:53:55;;;;;;;6.75;5.30;;;1.40;80.30;;;;;;5073110;28;20039;-89
2024/01/18 09:56:27;;;;;;;7.28;5.45;;;1.50;80.30;;;;;;5032963;28;20511;-89
2024/01/18 09:58:54;;;;;;;6.82;5.28;;;1.50;80.30;;;;;;5067700;28;20031;-89
2024/01/18 10:01:21;;;;;;;7.32;6.07;;;1.50;80.20;;;;;;5069683;28;20037;-88
2024/01/18 10:03:51;;;;;;;7.38;5.22;;;1.50;80.30;;;;;;5053974;28;20016;-88
2024/01/18 10:06:17;;;;;;;6.63;5.55;;;1.50;80.20;;;;;;5071229;28;20050;-88
2024/01/18 10:08:47;;;;;;;6.60;4.75;;;1.50;80.20;;;;;;5051190;28;20041;-89
2024/01/18 10:11:13;;;;;;;6.40;4.85;;;1.60;80.30;;;;;;5042164;28;20017;-89
2024/01/18 10:13:52;;;;;;;7.22;4.93;;;1.60;80.30;;;;;;5031139;28;20052;-92
2024/01/18 10:16:27;;;;;;;7.68;5.10;;;1.60;80.30;;;;;;5047663;28;20054;-89
2024/01/18 10:18:56;;;;;;;6.20;4.93;;;1.60;80.30;;;;;;5079112;28;20151;-90
2024/01/18 10:21:23;;;;;;;6.57;4.85;;;1.60;80.30;;;;;;5052711;28;20099;-90
2024/01/18 10:23:51;;;;;;;6.20;4.75;;;1.70;80.30;;;;;;5050712;28;20111;-92
2024/01/18 10:26:17;;;;;;;6.20;4.80;;;1.70;80.30;;;;;;5030892;28;20017;-91
2024/01/18 10:28:43;;;;;;;7.63;5.15;;;1.70;80.30;;;;;;5051283;28;20060;-91
2024/01/18 10:31:09;;;;;;;7.28;4.93;;;1.70;80.30;;;;;;5040594;28;20037;-91
2024/01/18 10:33:35;;;;;;;5.97;4.38;;;1.70;80.40;;;;;;5053715;28;20546;-93
2024/01/18 10:36:02;;;;;;;5.80;4.38;;;1.70;80.30;;;;;;5040931;28;20025;-88
2024/01/18 10:38:29;;;;;;;6.20;4.55;;;1.70;80.30;;;;;;5038787;28;20032;-89
2024/01/18 10:40:57;;;;;;;6.65;4.63;;;1.80;80.40;;;;;;5057309;28;20032;-90
2024/01/18 10:43:28;;;;;;;6.63;4.95;;;1.80;80.40;;;;;;5040267;28;20040;-90
2024/01/18 10:45:54;;;;;;;5.60;4.53;;;1.80;80.40;;;;;;5043060;28;20016;-91
2024/01/18 10:48:21;;;;;;;5.88;4.35;;;1.80;80.40;;;;;;5036559;28;20032;-91
2024/01/18 10:50:51;;;;;;;6.60;4.50;;;1.90;81.10;;;;;;5056074;28;20261;-90
2024/01/18 10:53:17;;;;;;;6.07;4.45;;;1.90;80.40;;;;;;5039858;28;20083;-89
2024/01/18 10:55:43;;;;;;;5.88;4.85;;;1.90;80.40;;;;;;5055518;28;20033;-86
2024/01/18 10:58:09;;;;;;;5.72;4.13;;;1.90;80.40;;;;;;5047091;28;20028;-91
2024/01/18 11:00:35;;;;;;;5.50;4.20;;;1.90;80.40;;;;;;5053556;28;20027;-91
2024/01/18 11:03:01;;;;;;;5.65;4.60;;;1.90;80.40;;;;;;5055134;28;20028;-91
2024/01/18 11:05:27;;;;;;;5.53;4.30;;;1.90;81.10;;;;;;5086076;28;20024;-90
2024/01/18 11:07:53;;;;;;;6.32;4.43;;;2.00;80.50;;;;;;5056602;28;20029;-91
2024/01/18 11:10:20;;;;;;;6.20;5.07;;;2.00;80.50;;;;;;5040371;28;20108;-92
2024/01/18 11:12:49;;;;;;;6.15;4.05;;;2.00;80.50;;;;;;5051189;28;20025;-91
2024/01/18 11:15:16;;;;;;;6.40;4.30;;;2.00;80.60;;;;;;5039204;28;20023;-87
2024/01/18 11:17:52;;;;;;;4.80;3.88;;;2.00;80.50;;;;;;5037913;28;20021;-90
2024/01/18 11:20:18;;;;;;;5.15;4.20;;;2.10;80.60;;;;;;5072090;28;20478;-91
2024/01/18 11:22:47;;;;;;;5.40;3.95;;;2.10;81.20;;;;;;5073367;28;20048;-89
2024/01/18 11:25:19;;;;;;;5.40;4.10;;;2.10;80.50;;;;;;5056777;28;20020;-87
2024/01/18 11:27:45;;;;;;;5.30;3.70;;;2.10;80.60;;;;;;5039871;28;20202;-93
2024/01/18 11:30:12;;;;;;;5.03;4.10;;;2.10;80.60;;;;;;5073311;28;20499;-92
2024/01/18 11:32:38;;;;;;;5.20;3.97;;;2.10;80.50;;;;;;5056416;28;20025;-92
2024/01/18 11:35:13;;;;;;;4.93;3.55;;;2.10;80.60;;;;;;5054380;28;20389;-93
2024/01/18 11:37:39;;;;;;;5.28;4.00;;;2.20;80.60;;;;;;5054776;28;20036;-94
2024/01/18 11:40:06;;;;;;;5.82;4.50;;;2.20;80.60;;;;;;5032527;28;20093;-92
2024/01/18 11:42:33;;;;;;;5.00;3.80;;;2.20;80.60;;;;;;5053533;28;20515;-93
2024/01/18 11:45:01;;;;;;;4.30;3.47;;;2.20;80.60;;;;;;5037245;28;20024;-92
2024/01/18 11:47:31;;;;;;;5.32;3.63;;;2.30;80.60;;;;;;5035620;28;20040;-93
2024/01/18 11:49:58;;;;;;;5.55;3.78;;;2.30;80.60;;;;;;5052647;28;20039;-93
2024/01/18 11:52:25;;;;;;;5.35;3.95;;;2.30;80.60;;;;;;5056549;28;20162;-93
2024/01/18 11:54:54;;;;;;;6.22;4.00;;;2.30;80.70;;;;;;5075365;28;20103;-92
2024/01/18 11:57:22;;;;;;;4.60;3.70;;;2.30;80.70;;;;;;5053157;28;20174;-93
2024/01/18 11:59:48;;;;;;;4.32;3.53;;;2.30;80.60;;;;;;5054257;28;20094;-92
2024/01/18 12:02:14;;;;;;;4.05;3.13;;;2.30;80.60;;;;;;5039486;28;20048;-91
2024/01/18 12:04:40;;;;;;;4.75;3.70;;;2.40;80.70;;;;;;5049868;28;20094;-87
2024/01/18 12:07:07;;;;;;;4.95;4.00;;;2.40;80.70;;;;;;5049695;28;20036;-88
2024/01/18 12:09:34;;;;;;;5.20;3.67;;;2.40;80.70;;;;;;5073264;28;20025;-85
2024/01/18 12:12:01;;;;;;;4.43;3.35;;;2.40;80.70;;;;;;5055033;28;20025;-91
2024/01/18 12:14:27;;;;;;;4.13;3.25;;;2.40;80.70;;;;;;5033255;28;20048;-90
2024/01/18 12:16:53;;;;;;;3.90;3.10;;;2.40;80.70;;;;;;5052328;28;20349;-87
2024/01/18 12:19:48;;;;;;;4.25;3.35;;;2.50;80.80;;;;;;5050561;28;20025;-91
2024/01/18 12:22:18;;;;;;;4.55;3.65;;;2.50;80.80;;;;;;5062412;28;20119;-89
2024/01/18 12:24:48;;;;;;;4.68;3.50;;;2.50;80.70;;;;;;5084646;28;20032;-90
2024/01/18 12:27:14;;;;;;;4.90;3.47;;;2.50;80.70;;;;;;5069646;28;20084;-90
2024/01/18 12:29:41;;;;;;;4.55;3.40;;;2.60;80.80;;;;;;5035419;28;20060;-92
2024/01/18 12:32:08;;;;;;;4.90;3.75;;;2.60;80.80;;;;;;5049533;28;20029;-92
2024/01/18 12:34:35;;;;;;;4.63;3.25;;;2.60;80.80;;;;;;5069790;28;20021;-92
2024/01/18 12:37:02;;;;;;;4.85;3.20;;;2.60;80.80;;;;;;5081797;28;20036;-90
2024/01/18 12:39:32;;;;;;;3.90;3.10;;;2.60;80.80;;;;;;5053719;28;20033;-92
2024/01/18 12:41:58;;;;;;;4.00;3.15;;;2.60;80.80;;;;;;5060627;28;20059;-91
2024/01/18 12:44:24;;;;;;;4.30;3.38;;;2.70;80.80;;;;;;5031472;28;20021;-90
2024/01/18 12:46:51;;;;;;;4.30;3.22;;;2.70;80.90;;;;;;5052008;28;20035;-88
2024/01/18 12:49:18;;;;;;;4.00;2.83;;;2.70;80.90;;;;;;5051415;28;20111;-88
2024/01/18 12:51:55;;;;;;;3.95;3.15;;;2.70;80.90;;;;;;5038146;28;20146;-88